Stations météo

réclame
Mon MeteoGroup
Stabroek, Belgique (6438): Température de l'air & dewpoint: 12.11.2018 05:00:00 - 18.11.2018 05:00:00 (CET)Stabroek, Belgique (6438): Vitesse du vent & gusts: 12.11.2018 05:00:00 - 18.11.2018 05:00:00 (CET)Stabroek, Belgique (6438): Direction du vent: 12.11.2018 05:00:00 - 18.11.2018 05:00:00 (CET)Stabroek, Belgique (6438): reduced air pressure: 12.11.2018 05:00:00 - 18.11.2018 05:00:00 (CET)Stabroek, Belgique (6438): Ensoleillement: 12.11.2018 05:00:00 - 18.11.2018 05:00:00 (CET)Stabroek, Belgique (6438): Quantités de précipitations: 12.11.2018 05:00:00 - 18.11.2018 05:00:00 (CET)
Date & Time tt [°C] td [°C] ff [km/h] ff [knt] fx [km/h] fx [knt] dd ppp [hPa] sd [min] rr [mm]
18.11.2018 05:00:00 - - - - - - - - - -
18.11.2018 04:00:00 1,5 -0,8 10 6 24 13 ENE 1029,9 0 0,0
18.11.2018 03:00:00 1,9 -0,6 11 6 19 10 ENE 1029,9 0 0,0
18.11.2018 02:00:00 2,0 -0,2 10 5 17 9 NE 1029,7 0 0,0
18.11.2018 01:00:00 2,7 0,2 11 6 20 11 NE 1029,8 0 0,0
18.11.2018 00:00:00 3,5 0,8 15 8 23 12 NE 1029,8 0 0,0
17.11.2018 23:00:00 4,1 1,2 15 8 30 16 ENE 1029,8 0 0,0
17.11.2018 22:00:00 4,5 1,2 13 7 23 12 ENE 1029,6 0 0,0
17.11.2018 21:00:00 5,4 1,3 14 8 31 17 ENE 1029,6 0 0,0
17.11.2018 20:00:00 5,7 2,0 14 8 29 15 ENE 1029,3 0 0,0
17.11.2018 19:00:00 5,4 2,5 11 6 17 9 NE 1029,4 0 0,0
17.11.2018 18:00:00 6,4 2,6 10 6 27 15 NE 1029,3 0 0,0
17.11.2018 17:00:00 7,5 2,7 14 8 29 16 NE 1029,3 - -
17.11.2018 16:00:00 8,9 2,7 15 8 34 19 ENE 1028,9 60 0,0
17.11.2018 15:00:00 9,4 2,7 18 10 33 18 E 1029,0 60 0,0
17.11.2018 14:00:00 9,3 3,0 15 8 33 18 E 1029,3 60 0,0
17.11.2018 13:00:00 8,6 3,0 18 10 35 19 ENE 1029,5 60 0,0
17.11.2018 12:00:00 7,5 3,3 16 9 26 14 E 1029,6 60 0,0
17.11.2018 11:00:00 5,6 3,5 13 7 20 11 E 1030,0 60 0,0
17.11.2018 10:00:00 2,8 2,2 9 5 14 7 E 1029,8 60 0,1
17.11.2018 09:00:00 1,1 1,1 6 4 11 6 ENE 1029,6 25 0,0
17.11.2018 08:00:00 0,0 0,0 6 3 10 5 ENE 1029,3 0 0,0
17.11.2018 07:00:00 -0,4 -0,4 4 2 6 4 ENE 1029,0 0 0,0
17.11.2018 06:00:00 0,3 0,3 4 2 6 4 NE 1029,1 0 0,0
17.11.2018 05:00:00 0,5 0,5 4 2 7 4 ENE 1029,0 - -
17.11.2018 04:00:00 0,3 0,3 4 2 - - NE 1029,0 - -
17.11.2018 03:00:00 -1,1 -1,1 4 2 4 2 ESE 1029,2 0 0,0
17.11.2018 02:00:00 -0,7 -0,7 0 0 4 2 N 1028,7 0 0,0
17.11.2018 01:00:00 -0,2 -0,2 0 0 3 2 N 1028,7 0 0,0
17.11.2018 00:00:00 0,1 0,1 0 0 5 3 N 1028,6 0 0,0
16.11.2018 23:00:00 0,9 0,9 4 2 5 3 NNE 1028,5 0 0,0
16.11.2018 22:00:00 1,2 1,2 0 0 3 2 N 1028,2 0 0,0
16.11.2018 21:00:00 2,8 2,8 4 2 3 2 WNW 1028,2 0 0,0
16.11.2018 20:00:00 3,6 3,6 0 0 8 4 N 1028,1 0 0,0
16.11.2018 19:00:00 4,0 4,0 4 2 10 6 NNE 1028,0 0 0,0
16.11.2018 18:00:00 4,5 4,5 6 3 13 7 E 1027,5 0 0,0
16.11.2018 17:00:00 4,9 4,9 9 5 14 7 E 1028,1 0 0,0
16.11.2018 16:00:00 5,2 5,2 7 4 - - E 1027,9 - -
16.11.2018 15:00:00 5,5 5,5 8 5 14 8 E 1027,9 0 0,0
16.11.2018 14:00:00 5,5 5,5 9 5 12 7 E 1028,0 0 0,0
16.11.2018 13:00:00 5,6 5,6 7 4 10 6 NE 1028,4 0 0,0
16.11.2018 12:00:00 5,2 5,2 6 3 14 8 ESE 1028,2 0 0,0
16.11.2018 11:00:00 5,0 5,0 8 5 13 7 E 1028,2 0 0,0
16.11.2018 10:00:00 5,2 5,2 9 5 15 8 ESE 1027,9 0 0,0
16.11.2018 09:00:00 5,4 5,4 8 5 12 6 E 1027,6 0 0,0
16.11.2018 08:00:00 5,6 5,6 5 3 13 7 ESE 1026,8 0 0,0
16.11.2018 07:00:00 5,7 5,7 7 4 10 6 ESE 1026,6 0 0,0
16.11.2018 06:00:00 5,5 5,5 4 2 11 6 E 1026,3 - -
16.11.2018 05:00:00 5,5 5,5 8 4 12 6 ESE 1025,9 0 0,0
16.11.2018 04:00:00 5,5 5,5 7 4 11 6 E 1025,7 0 0,0
16.11.2018 03:00:00 5,7 5,7 7 4 10 6 E 1025,7 0 0,0
16.11.2018 02:00:00 5,5 5,5 4 2 7 4 ENE 1025,7 0 0,0
16.11.2018 01:00:00 5,2 5,2 4 2 7 4 E 1025,6 0 0,0
16.11.2018 00:00:00 4,2 4,2 6 3 10 6 ESE 1025,2 0 0,0
15.11.2018 23:00:00 5,2 5,2 6 4 9 5 E 1025,1 0 0,0
15.11.2018 22:00:00 6,4 6,0 6 4 10 6 ESE 1024,7 0 0,0
15.11.2018 21:00:00 7,3 6,5 6 3 10 5 ESE 1024,5 0 0,0
15.11.2018 20:00:00 8,2 6,8 5 3 9 5 ESE 1024,4 0 0,0
15.11.2018 19:00:00 9,5 7,2 4 2 7 4 E 1023,9 0 0,0
15.11.2018 18:00:00 10,7 7,5 6 3 11 6 E 1023,7 0 0,0
15.11.2018 17:00:00 12,8 7,8 5 3 9 5 ESE 1023,7 52 0,0
15.11.2018 16:00:00 14,0 8,8 5 3 13 7 SE 1023,7 60 0,0
15.11.2018 15:00:00 14,2 8,6 10 5 16 9 SE 1023,9 60 0,0
15.11.2018 14:00:00 13,8 8,5 10 6 16 9 SE 1024,0 60 0,0
15.11.2018 13:00:00 12,9 7,7 11 6 15 8 SE 1024,3 60 0,0
15.11.2018 12:00:00 11,1 7,4 8 4 12 7 ESE 1024,6 60 0,0
15.11.2018 11:00:00 9,3 6,9 9 5 13 7 ESE 1025,0 60 0,0
15.11.2018 10:00:00 7,2 6,2 5 3 9 5 ESE 1025,1 60 0,0
15.11.2018 09:00:00 5,1 4,9 6 4 10 5 ESE 1024,9 26 0,0
15.11.2018 08:00:00 4,4 4,4 6 4 10 5 ESE 1024,8 0 0,0
15.11.2018 07:00:00 4,4 4,3 7 4 9 5 E 1024,6 0 0,0
15.11.2018 06:00:00 4,1 4,1 4 2 7 4 E 1024,6 0 0,0
15.11.2018 05:00:00 4,5 4,2 6 3 11 6 E 1024,6 0 0,0
15.11.2018 04:00:00 5,0 4,7 6 4 10 6 ESE 1024,5 0 0,0
15.11.2018 03:00:00 5,3 5,0 7 4 10 6 ESE 1024,8 0 0,0
15.11.2018 02:00:00 5,2 5,2 5 3 8 5 ESE 1024,7 0 0,0
15.11.2018 01:00:00 5,7 5,6 7 4 9 5 ESE 1025,0 0 0,0
15.11.2018 00:00:00 5,7 5,6 7 4 11 6 ESE 1025,0 0 0,0
14.11.2018 23:00:00 6,0 5,8 7 4 9 5 ESE 1025,1 0 0,0
14.11.2018 22:00:00 7,2 6,5 6 4 13 7 E 1025,1 0 0,0
14.11.2018 21:00:00 7,7 6,9 8 4 13 7 ESE 1025,0 0 0,0
14.11.2018 20:00:00 8,0 7,1 8 4 13 7 SE 1025,4 0 0,0
14.11.2018 19:00:00 8,5 7,3 7 4 13 7 SE 1025,7 0 0,0
14.11.2018 18:00:00 9,3 7,4 8 4 13 7 ESE 1025,6 0 0,0
14.11.2018 17:00:00 10,6 7,9 7 4 14 7 ESE 1025,9 31 0,0
14.11.2018 16:00:00 12,0 8,0 10 5 16 9 SE 1026,3 43 0,0
14.11.2018 15:00:00 12,9 8,4 11 6 24 13 S 1026,5 60 0,0
14.11.2018 14:00:00 13,1 8,7 15 8 21 11 S 1026,9 51 0,0
14.11.2018 13:00:00 12,8 8,9 14 8 18 10 S 1027,3 60 0,0
14.11.2018 12:00:00 12,4 9,5 12 7 17 9 S 1027,6 60 0,0
14.11.2018 11:00:00 11,0 8,8 10 6 17 9 S 1028,2 60 0,0
14.11.2018 10:00:00 8,8 8,1 13 7 16 9 S 1028,0 60 0,0
14.11.2018 09:00:00 5,9 5,9 11 6 14 8 SSE 1028,0 28 0,0
14.11.2018 08:00:00 5,5 5,5 5 3 8 5 ESE 1027,9 0 0,0
14.11.2018 07:00:00 5,7 5,6 7 4 16 8 ESE 1027,5 0 0,0
14.11.2018 06:00:00 7,2 6,9 11 6 14 8 SSE 1027,3 0 0,0
14.11.2018 05:00:00 7,1 6,7 11 6 18 10 SSE 1027,7 - -
14.11.2018 04:00:00 8,1 7,3 11 6 - - S 1028,3 - -
14.11.2018 03:00:00 8,3 7,4 7 4 21 11 SSE 1028,7 0 0,0
14.11.2018 02:00:00 8,4 7,5 8 4 22 12 S 1028,8 0 0,0
14.11.2018 01:00:00 9,9 8,1 18 10 26 14 S 1028,9 0 0,0
14.11.2018 00:00:00 10,0 8,3 12 7 22 12 S 1028,8 0 0,0
13.11.2018 23:00:00 10,7 8,6 14 8 23 12 SSW 1028,8 0 0,0
13.11.2018 22:00:00 10,5 8,8 15 8 24 13 SSW 1028,6 0 0,0
13.11.2018 21:00:00 10,2 8,7 16 8 25 14 SSW 1028,2 0 0,0
13.11.2018 20:00:00 10,6 8,8 17 9 26 14 SSW 1027,9 0 0,0
13.11.2018 19:00:00 10,7 8,8 14 8 25 14 SSW 1027,5 0 0,0
13.11.2018 18:00:00 11,4 8,8 18 10 28 15 SSW 1026,9 0 0,0
13.11.2018 17:00:00 12,4 8,9 21 11 33 18 SSW 1026,3 45 0,0
13.11.2018 16:00:00 13,1 8,9 21 11 43 23 SW 1025,6 34 0,0
13.11.2018 15:00:00 13,2 8,2 28 15 44 24 SW 1025,0 24 0,0
13.11.2018 14:00:00 13,4 9,4 26 14 44 24 SW 1024,4 58 0,0
13.11.2018 13:00:00 12,8 9,0 29 16 47 26 SW 1023,7 60 0,0
13.11.2018 12:00:00 12,0 9,1 29 15 46 25 SW 1023,3 60 0,0
13.11.2018 11:00:00 10,9 9,0 26 14 41 22 SSW 1022,7 8 0,0
13.11.2018 10:00:00 10,4 8,2 25 13 35 19 SW 1022,0 0 0,2
13.11.2018 09:00:00 10,7 9,1 19 10 35 19 SW 1021,2 0 0,0
13.11.2018 08:00:00 10,5 9,0 24 13 37 20 SSW 1020,4 0 0,0
13.11.2018 07:00:00 10,1 9,1 22 12 34 18 SSW 1019,8 0 0,0
13.11.2018 06:00:00 10,3 9,4 21 12 42 23 SSW 1019,2 0 0,0
13.11.2018 05:00:00 10,4 9,3 25 14 42 23 SSW 1018,8 0 0,0
13.11.2018 04:00:00 10,5 9,3 21 12 37 20 S 1018,5 0 0,0
13.11.2018 03:00:00 10,6 9,2 19 10 32 17 S 1018,6 0 0,0
13.11.2018 02:00:00 10,6 9,0 19 10 36 20 S 1018,4 0 0,0
13.11.2018 01:00:00 10,4 8,8 18 10 35 19 S 1017,9 0 0,0
13.11.2018 00:00:00 10,2 8,7 17 9 27 15 S 1017,8 0 0,0
12.11.2018 23:00:00 10,2 8,7 16 9 24 13 S 1017,7 0 0,0
12.11.2018 22:00:00 10,2 8,9 14 8 26 14 S 1017,8 0 0,0
12.11.2018 21:00:00 10,1 9,0 16 8 27 14 S 1017,6 0 0,0
12.11.2018 20:00:00 10,2 9,0 13 7 26 14 S 1017,2 0 0,0
12.11.2018 19:00:00 10,4 9,2 11 6 21 12 S 1016,8 0 0,0
12.11.2018 18:00:00 10,0 9,6 8 4 21 12 S 1015,9 0 0,0
12.11.2018 17:00:00 11,1 9,8 14 8 22 12 SSW 1015,5 - -
12.11.2018 16:00:00 11,3 10,2 11 6 15 8 S 1014,9 0 0,0
12.11.2018 15:00:00 11,7 10,4 8 4 12 7 SW 1014,3 0 0,0
12.11.2018 14:00:00 11,5 10,7 8 5 13 7 SSW 1013,7 1 0,1
12.11.2018 13:00:00 10,8 9,8 11 6 16 8 SW 1013,5 0 0,3
12.11.2018 12:00:00 10,5 10,3 5 3 9 5 W 1013,2 0 1,2
12.11.2018 11:00:00 10,4 10,4 4 2 7 4 W 1012,9 0 0,8
12.11.2018 10:00:00 10,6 10,6 4 2 5 3 SSE 1012,2 0 1,1
12.11.2018 09:00:00 10,4 10,4 4 2 6 3 SSE 1012,3 0 1,6
12.11.2018 08:00:00 10,2 10,2 0 0 8 5 N 1011,9 0 1,3
12.11.2018 07:00:00 10,5 10,5 7 4 11 6 SE 1011,9 0 1,5
12.11.2018 06:00:00 10,6 10,6 6 3 8 4 ESE 1011,3 0 0,9
12.11.2018 05:00:00 10,7 10,7 5 3 11 6 SSE 1011,5 0 0,8

tt = Température de l'air
td = dewpoint
ff = Vitesse du vent
fx = gusts
dd = Direction du vent
ppp = reduced air pressure
sd = Ensoleillement
rr = Quantités de précipitations

stations d'obs. à proximité